createdAt,value
2023-05-22T00:00:42.096Z,67.77
2023-05-22T00:03:30.681Z,67.91
2023-05-22T00:06:10.273Z,68.37
2023-05-22T00:08:46.792Z,68.50
2023-05-22T00:11:23.368Z,68.77
2023-05-22T00:13:59.750Z,69.07
2023-05-22T00:16:36.168Z,68.96
2023-05-22T00:19:17.410Z,69.01
2023-05-22T00:21:54.513Z,69.44
2023-05-22T00:24:31.993Z,69.59
2023-05-22T00:27:09.146Z,69.60
2023-05-22T00:29:45.451Z,69.67
2023-05-22T00:32:21.934Z,69.86
2023-05-22T00:34:58.269Z,69.68
2023-05-22T00:37:34.656Z,69.68
2023-05-22T00:40:15.738Z,69.74
2023-05-22T00:42:52.171Z,69.98
2023-05-22T00:45:29.158Z,69.92
2023-05-22T00:48:08.337Z,69.72
2023-05-22T00:50:45.165Z,69.67
2023-05-22T00:53:24.081Z,69.77
2023-05-22T00:56:02.206Z,69.85
2023-05-22T00:58:39.166Z,69.86
2023-05-22T01:01:18.045Z,69.89
2023-05-22T01:03:55.817Z,69.92
2023-05-22T01:06:32.903Z,69.77
2023-05-22T01:09:10.318Z,69.73
2023-05-22T01:12:00.224Z,69.77
2023-05-22T01:14:50.198Z,69.62
2023-05-22T01:17:40.837Z,69.58
2023-05-22T01:20:31.596Z,69.64
2023-05-22T01:24:52.032Z,69.61
2023-05-22T01:28:04.210Z,69.52
2023-05-22T01:31:06.598Z,69.63
2023-05-22T01:33:50.225Z,69.55
2023-05-22T01:36:36.093Z,69.45
2023-05-22T01:39:13.303Z,69.36
2023-05-22T01:41:50.714Z,69.29
2023-05-22T01:44:27.147Z,69.13
2023-05-22T01:47:06.227Z,69.04
2023-05-22T01:49:42.968Z,69.01
2023-05-22T01:52:30.591Z,68.97
2023-05-22T01:55:14.815Z,69.01
2023-05-22T01:58:06.540Z,69.05
2023-05-22T02:00:47.183Z,69.09
2023-05-22T02:03:32.306Z,69.12
2023-05-22T02:06:14.534Z,69.29
2023-05-22T02:08:53.130Z,69.20
2023-05-22T02:11:33.934Z,69.27
2023-05-22T02:14:12.189Z,69.30
2023-05-22T02:16:50.482Z,69.42
2023-05-22T02:19:27.069Z,69.44
2023-05-22T02:22:03.439Z,69.56
2023-05-22T02:24:39.916Z,69.77
2023-05-22T02:27:16.971Z,69.92
2023-05-22T02:29:53.617Z,70.47
2023-05-22T02:32:31.770Z,70.44
2023-05-22T02:35:10.165Z,70.52
2023-05-22T02:37:46.704Z,70.85
2023-05-22T02:40:23.061Z,71.21
2023-05-22T02:42:59.540Z,71.49
2023-05-22T02:45:36.119Z,71.74
2023-05-22T02:48:13.340Z,72.00
2023-05-22T02:50:49.925Z,72.29
2023-05-22T02:53:26.462Z,72.40
2023-05-22T02:56:03.485Z,72.39
2023-05-22T02:58:40.067Z,72.71
2023-05-22T03:01:17.471Z,73.38
2023-05-22T03:03:55.162Z,73.59
2023-05-22T03:06:32.416Z,73.82
2023-05-22T03:09:09.727Z,73.96
2023-05-22T03:11:46.164Z,74.10
2023-05-22T03:14:22.771Z,74.15
2023-05-22T03:16:59.162Z,74.04
2023-05-22T03:19:35.746Z,73.99
2023-05-22T03:22:12.414Z,73.88
2023-05-22T03:24:49.078Z,73.89
2023-05-22T03:27:25.643Z,73.83
2023-05-22T03:30:05.163Z,73.68
2023-05-22T03:32:42.204Z,73.35
2023-05-22T03:35:20.011Z,73.15
2023-05-22T03:37:56.584Z,72.53
2023-05-22T03:40:33.225Z,71.26
2023-05-22T03:43:09.713Z,70.28
2023-05-22T03:45:46.247Z,69.69
2023-05-22T03:48:22.923Z,68.17
2023-05-22T03:51:00.692Z,67.07
2023-05-22T03:53:36.956Z,65.76
2023-05-22T03:56:13.666Z,64.07
2023-05-22T03:58:50.295Z,61.99
2023-05-22T04:01:27.048Z,59.87
2023-05-22T04:04:05.602Z,58.16
2023-05-22T04:06:44.128Z,56.50
2023-05-22T04:09:22.633Z,55.71
2023-05-22T04:11:59.050Z,54.49
2023-05-22T04:14:35.513Z,53.36
2023-05-22T04:17:12.900Z,52.08
2023-05-22T04:19:49.141Z,51.71
2023-05-22T04:22:26.453Z,50.72
2023-05-22T04:25:03.256Z,50.57
2023-05-22T04:27:40.263Z,49.62
2023-05-22T04:30:18.592Z,48.76
2023-05-22T04:32:55.215Z,48.78
2023-05-22T04:35:32.170Z,47.86
2023-05-22T04:38:08.837Z,46.98
2023-05-22T04:40:45.361Z,47.06
2023-05-22T04:43:23.595Z,45.94
2023-05-22T04:46:00.669Z,45.20
2023-05-22T04:48:37.824Z,44.45
2023-05-22T04:51:14.381Z,44.20
2023-05-22T04:53:52.086Z,42.96
2023-05-22T04:56:36.238Z,43.52
2023-05-22T04:59:16.943Z,43.36
2023-05-22T05:01:53.653Z,43.03
2023-05-22T05:04:30.203Z,42.41
2023-05-22T05:07:07.116Z,42.42
2023-05-22T05:09:43.437Z,42.41
2023-05-22T05:12:20.589Z,42.14
2023-05-22T05:14:56.940Z,41.76
2023-05-22T05:17:33.447Z,41.04
2023-05-22T05:20:15.330Z,41.19
2023-05-22T05:22:52.739Z,41.33
2023-05-22T05:25:29.909Z,40.84
2023-05-22T05:28:10.861Z,40.70
2023-05-22T05:30:48.254Z,40.60
2023-05-22T05:33:36.627Z,40.92
2023-05-22T05:36:30.385Z,40.68
2023-05-22T05:39:07.828Z,40.43
2023-05-22T05:41:44.609Z,40.59
2023-05-22T05:44:23.654Z,40.79
2023-05-22T05:47:02.250Z,40.13
2023-05-22T05:49:39.048Z,40.41
2023-05-22T05:52:16.308Z,40.66
2023-05-22T05:54:52.584Z,40.23
2023-05-22T05:57:32.367Z,40.51
2023-05-22T06:00:12.054Z,40.41
2023-05-22T06:02:51.343Z,39.60
2023-05-22T06:05:42.464Z,40.32
2023-05-22T06:08:26.764Z,40.01
2023-05-22T06:11:03.651Z,39.04
2023-05-22T06:13:46.463Z,39.12
2023-05-22T06:16:23.111Z,39.03
2023-05-22T06:19:01.011Z,38.88
2023-05-22T06:21:38.678Z,38.44
2023-05-22T06:24:16.518Z,38.17
2023-05-22T06:26:52.953Z,37.81
2023-05-22T06:29:29.507Z,38.67
2023-05-22T06:32:06.668Z,38.59
2023-05-22T06:34:44.444Z,38.09
2023-05-22T06:37:21.640Z,38.89
2023-05-22T06:39:58.275Z,36.89
2023-05-22T06:42:40.865Z,37.11
2023-05-22T06:46:04.417Z,37.19
2023-05-22T06:48:47.174Z,38.27
2023-05-22T06:51:29.660Z,37.43
2023-05-22T06:54:13.823Z,37.97
2023-05-22T06:56:52.129Z,38.12
2023-05-22T06:59:28.638Z,37.47
2023-05-22T07:02:13.766Z,36.57
2023-05-22T07:05:10.030Z,36.58
2023-05-22T07:07:56.498Z,37.24
2023-05-22T07:10:33.295Z,37.75
2023-05-22T07:13:09.733Z,36.91
2023-05-22T07:15:46.702Z,37.85
2023-05-22T07:18:23.177Z,36.21
2023-05-22T07:21:01.667Z,36.69
2023-05-22T07:23:38.500Z,37.97
2023-05-22T07:26:15.054Z,37.89
2023-05-22T07:28:57.064Z,37.14
2023-05-22T07:31:34.551Z,37.42
2023-05-22T07:34:11.312Z,36.96
2023-05-22T07:36:47.752Z,37.10
2023-05-22T07:39:24.233Z,36.95
2023-05-22T07:45:01.719Z,38.62
2023-05-22T07:47:38.736Z,38.77
2023-05-22T07:50:16.201Z,38.75
2023-05-22T07:52:54.028Z,38.15
2023-05-22T07:55:31.474Z,38.62
2023-05-22T07:58:08.577Z,36.78
2023-05-22T08:00:46.771Z,37.57
2023-05-22T08:03:24.263Z,40.16
2023-05-22T08:06:01.020Z,40.32
2023-05-22T08:08:38.355Z,39.32
2023-05-22T08:11:14.929Z,40.19
2023-05-22T08:13:51.709Z,39.34
2023-05-22T08:16:28.157Z,39.11
2023-05-22T08:19:04.578Z,39.21
2023-05-22T08:21:41.271Z,40.68
2023-05-22T08:24:17.737Z,40.85
2023-05-22T08:26:54.056Z,40.54
2023-05-22T08:29:31.414Z,40.27
2023-05-22T08:32:08.830Z,40.40
2023-05-22T08:34:46.301Z,40.47
2023-05-22T08:37:22.838Z,40.58
2023-05-22T08:39:59.338Z,40.09
2023-05-22T08:42:35.866Z,40.01
2023-05-22T08:45:16.291Z,41.25
2023-05-22T08:47:58.677Z,42.05
2023-05-22T08:50:37.174Z,42.55
2023-05-22T08:53:18.152Z,42.46
2023-05-22T08:55:55.103Z,41.64
2023-05-22T08:58:32.641Z,41.53
2023-05-22T09:01:11.174Z,41.92
2023-05-22T09:03:51.482Z,41.92
2023-05-22T09:06:29.271Z,42.02
2023-05-22T09:09:06.066Z,42.26
2023-05-22T09:11:42.616Z,43.20
2023-05-22T09:14:20.005Z,42.27
2023-05-22T09:16:57.919Z,40.81
2023-05-22T09:19:34.676Z,41.93
2023-05-22T09:22:11.417Z,42.43
2023-05-22T09:24:49.403Z,42.36
2023-05-22T09:27:29.060Z,43.36
2023-05-22T09:30:07.046Z,43.23
2023-05-22T09:32:44.045Z,40.49
2023-05-22T09:35:22.056Z,40.32
2023-05-22T09:38:02.644Z,41.35
2023-05-22T09:40:42.755Z,42.04
2023-05-22T09:43:22.892Z,41.40
2023-05-22T09:46:06.330Z,42.71
2023-05-22T09:48:42.795Z,42.43
2023-05-22T09:51:21.367Z,42.44
2023-05-22T09:54:06.455Z,42.37
2023-05-22T09:56:45.663Z,41.96
2023-05-22T09:59:30.403Z,42.88
2023-05-22T10:02:07.421Z,41.85
2023-05-22T10:04:46.112Z,41.50
2023-05-22T10:07:26.094Z,42.16
2023-05-22T10:10:10.028Z,40.44
2023-05-22T10:12:54.559Z,39.52
2023-05-22T10:15:31.262Z,38.45
2023-05-22T10:18:09.184Z,40.24
2023-05-22T10:20:47.222Z,41.21
2023-05-22T10:23:23.979Z,40.58
2023-05-22T10:26:00.817Z,40.28
2023-05-22T10:28:48.334Z,40.20
2023-05-22T10:31:40.116Z,39.94
2023-05-22T10:34:40.172Z,39.69
2023-05-22T10:37:43.373Z,39.32
2023-05-22T10:40:30.540Z,39.92
2023-05-22T10:43:07.801Z,40.20
2023-05-22T10:45:45.833Z,40.41
2023-05-22T10:48:26.330Z,38.86
2023-05-22T10:51:04.705Z,38.15
2023-05-22T10:53:43.708Z,37.88
2023-05-22T10:56:23.635Z,38.67
2023-05-22T10:59:05.405Z,39.21
2023-05-22T11:01:42.204Z,39.55
2023-05-22T11:04:26.378Z,39.35
2023-05-22T11:07:13.325Z,38.29
2023-05-22T11:09:50.186Z,39.63
2023-05-22T11:12:31.278Z,39.40
2023-05-22T11:15:13.644Z,38.24
2023-05-22T11:17:52.370Z,36.99
2023-05-22T11:20:31.109Z,36.49
2023-05-22T11:23:10.314Z,36.96
2023-05-22T11:25:47.477Z,37.14
2023-05-22T11:28:25.862Z,38.09
2023-05-22T11:31:02.996Z,36.22
2023-05-22T11:33:39.618Z,34.90
2023-05-22T11:36:17.556Z,34.01
2023-05-22T11:38:58.173Z,33.72
2023-05-22T11:41:38.804Z,34.41
2023-05-22T11:44:15.257Z,35.46
2023-05-22T11:46:52.354Z,35.49
2023-05-22T11:49:30.333Z,34.39
2023-05-22T11:52:07.457Z,34.92
2023-05-22T11:54:46.197Z,35.60
2023-05-22T11:57:24.365Z,34.89
2023-05-22T12:00:00.955Z,35.62
2023-05-22T12:02:37.480Z,35.93
2023-05-22T12:05:16.655Z,35.31
2023-05-22T12:07:53.451Z,35.32
2023-05-22T12:10:33.064Z,34.73
2023-05-22T12:13:09.818Z,34.01
2023-05-22T12:15:46.647Z,35.08
2023-05-22T12:18:25.335Z,35.51
2023-05-22T12:21:02.509Z,34.82
2023-05-22T12:23:48.714Z,35.26
2023-05-22T12:26:25.196Z,34.62
2023-05-22T12:29:02.747Z,32.87
2023-05-22T12:31:41.916Z,33.63
2023-05-22T12:34:20.071Z,34.09
2023-05-22T12:36:56.732Z,35.43
2023-05-22T12:39:33.981Z,35.34
2023-05-22T12:42:11.401Z,36.53
2023-05-22T12:44:50.642Z,36.85
2023-05-22T12:47:27.906Z,36.66
2023-05-22T12:50:04.597Z,37.60
2023-05-22T12:52:41.078Z,37.02
2023-05-22T12:55:17.723Z,36.15
2023-05-22T12:57:54.396Z,36.21
2023-05-22T13:00:31.448Z,35.89
2023-05-22T13:03:09.362Z,35.44
2023-05-22T13:05:46.020Z,34.90
2023-05-22T13:08:22.505Z,34.96
2023-05-22T13:10:59.051Z,35.06
2023-05-22T13:13:35.418Z,34.74
2023-05-22T13:16:13.467Z,35.10
2023-05-22T13:18:49.838Z,36.22
2023-05-22T13:21:26.732Z,36.07
2023-05-22T13:24:04.348Z,35.94
2023-05-22T13:26:40.735Z,35.03
2023-05-22T13:29:17.165Z,35.03
2023-05-22T13:31:53.620Z,35.82
2023-05-22T13:34:30.673Z,35.09
2023-05-22T13:37:07.729Z,34.76
2023-05-22T13:39:44.076Z,34.91
2023-05-22T13:42:21.327Z,35.12
2023-05-22T13:44:58.005Z,36.08
2023-05-22T13:47:34.890Z,35.62
2023-05-22T13:50:14.130Z,35.19
2023-05-22T13:52:50.627Z,35.03
2023-05-22T13:55:27.681Z,35.12
2023-05-22T13:58:04.983Z,35.80
2023-05-22T14:00:41.849Z,36.03
2023-05-22T14:03:19.080Z,35.49
2023-05-22T14:05:56.037Z,35.05
2023-05-22T14:08:33.148Z,35.25
2023-05-22T14:11:10.212Z,35.24
2023-05-22T14:13:46.985Z,36.05
2023-05-22T14:16:24.442Z,36.01
2023-05-22T14:19:02.216Z,35.66
2023-05-22T14:21:39.187Z,36.03
2023-05-22T14:24:17.170Z,36.84
2023-05-22T14:26:58.293Z,36.74
2023-05-22T14:29:35.761Z,36.40
2023-05-22T14:32:12.689Z,36.61
2023-05-22T14:34:49.295Z,36.54
2023-05-22T14:37:25.892Z,36.14
2023-05-22T14:40:02.702Z,36.08
2023-05-22T14:42:40.828Z,36.03
2023-05-22T14:45:18.050Z,36.44
2023-05-22T14:47:54.442Z,36.85
2023-05-22T14:50:30.921Z,36.86
2023-05-22T14:53:07.243Z,37.18
2023-05-22T14:55:43.584Z,37.86
2023-05-22T14:58:20.399Z,37.99
2023-05-22T15:00:56.870Z,37.85
2023-05-22T15:03:33.202Z,38.36
2023-05-22T15:06:11.066Z,37.67
2023-05-22T15:08:47.787Z,37.62
2023-05-22T15:11:24.182Z,37.25
2023-05-22T15:14:01.115Z,37.98
2023-05-22T15:16:37.547Z,38.41
2023-05-22T15:19:14.199Z,38.28
2023-05-22T15:21:50.676Z,38.73
2023-05-22T15:24:28.804Z,38.12
2023-05-22T15:27:07.818Z,38.95
2023-05-22T15:29:44.231Z,38.07
2023-05-22T15:32:20.537Z,37.92
2023-05-22T15:34:57.130Z,38.44
2023-05-22T15:37:36.740Z,39.09
2023-05-22T15:40:18.316Z,38.84
2023-05-22T15:42:54.306Z,39.12
2023-05-22T15:45:30.911Z,39.41
2023-05-22T15:48:08.263Z,38.40
2023-05-22T15:50:45.008Z,38.42
2023-05-22T15:53:22.118Z,38.46
2023-05-22T15:55:58.942Z,39.10
2023-05-22T15:58:35.402Z,38.98
2023-05-22T16:01:12.536Z,38.51
2023-05-22T16:03:49.168Z,38.08
2023-05-22T16:06:25.630Z,38.96
2023-05-22T16:09:02.335Z,40.02
2023-05-22T16:11:39.006Z,40.35
2023-05-22T16:14:15.722Z,40.67
2023-05-22T16:16:52.106Z,41.01
2023-05-22T16:19:28.634Z,41.24
2023-05-22T16:22:06.252Z,41.52
2023-05-22T16:24:42.624Z,41.50
2023-05-22T16:27:18.989Z,42.00
2023-05-22T16:29:55.260Z,42.19
2023-05-22T16:32:31.620Z,42.39
2023-05-22T16:35:09.607Z,43.22
2023-05-22T16:37:45.953Z,43.54
2023-05-22T16:40:22.885Z,44.12
2023-05-22T16:42:59.210Z,44.64
2023-05-22T16:45:35.576Z,45.22
2023-05-22T16:48:11.844Z,45.59
2023-05-22T16:50:48.309Z,45.76
2023-05-22T16:53:24.674Z,45.80
2023-05-22T16:56:01.003Z,45.95
2023-05-22T16:58:37.362Z,46.36
2023-05-22T17:01:14.167Z,46.72
2023-05-22T17:03:50.632Z,47.04
2023-05-22T17:06:29.411Z,47.17
2023-05-22T17:09:05.790Z,47.41
2023-05-22T17:11:42.244Z,47.60
2023-05-22T17:14:21.807Z,47.76
2023-05-22T17:16:59.540Z,47.97
2023-05-22T17:19:36.302Z,48.28
2023-05-22T17:22:12.959Z,48.48
2023-05-22T17:24:49.358Z,48.98
2023-05-22T17:27:35.627Z,49.16
2023-05-22T17:30:15.299Z,49.37
2023-05-22T17:32:53.627Z,49.74
2023-05-22T17:35:30.184Z,50.02
2023-05-22T17:38:07.871Z,50.54
2023-05-22T17:40:46.287Z,50.81
2023-05-22T17:43:23.094Z,51.16
2023-05-22T17:46:00.538Z,51.35
2023-05-22T17:48:37.780Z,51.67
2023-05-22T17:51:14.506Z,51.94
2023-05-22T17:53:56.161Z,52.16
2023-05-22T17:56:31.188Z,52.55
2023-05-22T17:59:09.445Z,52.96
2023-05-22T18:01:47.952Z,53.20
2023-05-22T18:04:24.730Z,53.41
2023-05-22T18:07:01.554Z,53.73
2023-05-22T18:09:38.424Z,54.10
2023-05-22T18:12:30.288Z,54.55
2023-05-22T18:15:10.806Z,55.12
2023-05-22T18:17:47.724Z,55.30
2023-05-22T18:20:24.669Z,55.55
2023-05-22T18:23:01.857Z,55.79
2023-05-22T18:25:38.525Z,55.94
2023-05-22T18:28:16.127Z,56.11
2023-05-22T18:30:53.047Z,56.24
2023-05-22T18:33:29.999Z,56.38
2023-05-22T18:36:07.891Z,56.48
2023-05-22T18:38:44.555Z,56.57
2023-05-22T18:41:22.076Z,56.77
2023-05-22T18:43:59.960Z,57.06
2023-05-22T18:46:36.514Z,57.12
2023-05-22T18:49:13.081Z,57.19
2023-05-22T18:51:51.925Z,57.28
2023-05-22T18:54:28.502Z,57.54
2023-05-22T18:57:05.387Z,57.84
2023-05-22T18:59:42.474Z,58.11
2023-05-22T19:02:21.428Z,58.41
2023-05-22T19:04:59.147Z,58.80
2023-05-22T19:07:36.034Z,59.10
2023-05-22T19:10:21.088Z,59.38
2023-05-22T19:12:57.602Z,59.50
2023-05-22T19:15:36.008Z,59.75
2023-05-22T19:18:12.908Z,59.95
2023-05-22T19:20:51.133Z,60.07
2023-05-22T19:23:29.490Z,60.26
2023-05-22T19:26:06.568Z,60.53
2023-05-22T19:28:43.443Z,60.68
2023-05-22T19:31:20.126Z,60.86
2023-05-22T19:33:56.658Z,61.05
2023-05-22T19:36:33.447Z,61.26
2023-05-22T19:39:09.905Z,61.41
2023-05-22T19:41:49.693Z,61.67
2023-05-22T19:44:26.123Z,61.79
2023-05-22T19:47:02.801Z,61.81
2023-05-22T19:49:39.280Z,62.01
2023-05-22T19:52:16.812Z,62.11
2023-05-22T19:54:53.350Z,62.16
2023-05-22T19:57:31.236Z,62.27
2023-05-22T20:00:11.185Z,62.33
2023-05-22T20:02:47.872Z,62.28
2023-05-22T20:05:25.151Z,62.64
2023-05-22T20:08:07.574Z,62.65
2023-05-22T20:10:46.385Z,62.81
2023-05-22T20:13:23.455Z,62.92
2023-05-22T20:16:02.843Z,62.98
2023-05-22T20:18:41.184Z,63.32
2023-05-22T20:21:18.804Z,63.76
2023-05-22T20:23:56.260Z,63.95
2023-05-22T20:26:32.967Z,64.04
2023-05-22T20:29:09.638Z,64.48
2023-05-22T20:31:46.381Z,64.73
2023-05-22T20:34:23.572Z,65.26
2023-05-22T20:37:00.778Z,65.18
2023-05-22T20:39:37.716Z,65.64
2023-05-22T20:42:15.140Z,65.44
2023-05-22T20:44:52.743Z,66.00
2023-05-22T20:47:29.585Z,66.73
2023-05-22T20:50:07.682Z,66.63
2023-05-22T20:52:46.137Z,66.96
2023-05-22T20:55:23.192Z,67.27
2023-05-22T20:57:59.690Z,67.28
2023-05-22T21:00:36.214Z,67.50
2023-05-22T21:03:14.824Z,67.83
2023-05-22T21:05:52.386Z,67.99
2023-05-22T21:08:29.249Z,68.33
2023-05-22T21:11:07.089Z,68.72
2023-05-22T21:13:43.719Z,68.99
2023-05-22T21:16:20.674Z,69.22
2023-05-22T21:18:57.203Z,69.52
2023-05-22T21:21:33.849Z,69.50
2023-05-22T21:24:12.217Z,69.59
2023-05-22T21:26:48.627Z,70.08
2023-05-22T21:29:25.296Z,70.39
2023-05-22T21:32:01.676Z,70.50
2023-05-22T21:34:38.021Z,70.76
2023-05-22T21:37:15.050Z,71.04
2023-05-22T21:39:51.289Z,71.45
2023-05-22T21:42:41.893Z,71.73
2023-05-22T21:45:22.697Z,71.79
2023-05-22T21:47:59.179Z,71.73
2023-05-22T21:50:35.777Z,71.88
2023-05-22T21:53:12.171Z,72.02
2023-05-22T21:55:48.723Z,72.38
2023-05-22T21:58:25.780Z,72.44
2023-05-22T22:01:02.839Z,72.86
2023-05-22T22:03:40.678Z,73.30
2023-05-22T22:06:17.448Z,73.42
2023-05-22T22:08:54.431Z,73.50
2023-05-22T22:11:30.813Z,73.51
2023-05-22T22:14:07.606Z,73.54
2023-05-22T22:16:45.630Z,73.78
2023-05-22T22:19:22.466Z,73.86
2023-05-22T22:21:59.051Z,73.91
2023-05-22T22:24:35.603Z,73.59
2023-05-22T22:27:12.479Z,73.40
2023-05-22T22:29:48.839Z,73.23
2023-05-22T22:32:25.274Z,73.24
2023-05-22T22:35:01.701Z,73.03
2023-05-22T22:37:38.351Z,72.96
2023-05-22T22:40:16.962Z,72.76
2023-05-22T22:42:53.322Z,72.53
2023-05-22T22:45:29.940Z,72.43
2023-05-22T22:48:07.178Z,72.37
2023-05-22T22:50:44.280Z,72.28
2023-05-22T22:53:20.721Z,71.98
2023-05-22T22:56:00.475Z,71.87
2023-05-22T22:58:37.016Z,71.81
2023-05-22T23:01:13.638Z,71.68
2023-05-22T23:03:50.098Z,71.55
2023-05-22T23:06:29.840Z,71.55
2023-05-22T23:09:06.820Z,71.57
2023-05-22T23:11:43.216Z,71.60
2023-05-22T23:14:20.674Z,71.58
2023-05-22T23:16:57.685Z,71.53
2023-05-22T23:19:34.313Z,71.51
2023-05-22T23:22:11.175Z,71.63
2023-05-22T23:24:47.546Z,71.65
2023-05-22T23:27:24.003Z,71.65
2023-05-22T23:30:01.232Z,71.61
2023-05-22T23:32:38.236Z,71.61
2023-05-22T23:35:15.124Z,71.54
2023-05-22T23:37:51.784Z,71.48
2023-05-22T23:40:28.149Z,71.42
2023-05-22T23:43:04.580Z,71.43
2023-05-22T23:45:41.027Z,71.46
2023-05-22T23:48:17.788Z,71.56
2023-05-22T23:50:54.092Z,71.53
2023-05-22T23:53:30.455Z,71.60
2023-05-22T23:56:07.425Z,71.65
2023-05-22T23:58:44.740Z,71.60
